createdAt,value
2023-03-06T00:01:03.607Z,59.69
2023-03-06T00:03:30.357Z,59.97
2023-03-06T00:05:57.624Z,60.87
2023-03-06T00:08:24.859Z,61.49
2023-03-06T00:10:51.544Z,61.44
2023-03-06T00:13:19.938Z,61.31
2023-03-06T00:15:46.924Z,61.15
2023-03-06T00:18:13.663Z,61.24
2023-03-06T00:20:40.871Z,61.13
2023-03-06T00:23:08.432Z,61.00
2023-03-06T00:25:35.143Z,61.16
2023-03-06T00:28:01.801Z,61.13
2023-03-06T00:30:28.489Z,61.41
2023-03-06T00:32:55.161Z,61.43
2023-03-06T00:35:21.897Z,62.50
2023-03-06T00:37:48.579Z,61.46
2023-03-06T00:40:16.975Z,61.01
2023-03-06T00:42:43.636Z,61.63
2023-03-06T00:45:10.442Z,61.40
2023-03-06T00:47:37.149Z,60.93
2023-03-06T00:50:04.640Z,60.54
2023-03-06T00:52:31.347Z,60.64
2023-03-06T00:54:58.015Z,61.03
2023-03-06T00:57:24.650Z,60.55
2023-03-06T00:59:51.287Z,60.83
2023-03-06T01:02:18.025Z,60.87
2023-03-06T01:04:44.685Z,60.31
2023-03-06T01:07:11.349Z,59.61
2023-03-06T01:09:37.981Z,60.94
2023-03-06T01:12:04.667Z,61.43
2023-03-06T01:14:31.307Z,61.46
2023-03-06T01:16:57.973Z,60.82
2023-03-06T01:19:24.606Z,61.25
2023-03-06T01:21:51.276Z,61.44
2023-03-06T01:24:18.029Z,61.87
2023-03-06T01:26:44.652Z,62.11
2023-03-06T01:29:12.446Z,61.28
2023-03-06T01:31:39.141Z,60.58
2023-03-06T01:34:05.853Z,61.10
2023-03-06T01:36:32.512Z,60.47
2023-03-06T01:38:59.163Z,61.36
2023-03-06T01:41:25.785Z,61.34
2023-03-06T01:43:52.434Z,62.09
2023-03-06T01:46:42.438Z,62.16
2023-03-06T01:49:11.733Z,61.95
2023-03-06T01:51:56.404Z,62.67
2023-03-06T01:54:55.636Z,63.15
2023-03-06T01:57:26.312Z,62.84
2023-03-06T01:59:58.785Z,63.34
2023-03-06T02:02:25.446Z,63.16
2023-03-06T02:04:52.114Z,62.65
2023-03-06T02:07:19.389Z,62.07
2023-03-06T02:09:46.038Z,61.87
2023-03-06T02:12:14.247Z,61.99
2023-03-06T02:14:40.898Z,62.16
2023-03-06T02:17:07.770Z,63.61
2023-03-06T02:19:54.508Z,63.47
2023-03-06T02:22:21.280Z,62.77
2023-03-06T02:25:02.500Z,63.41
2023-03-06T02:27:29.175Z,62.35
2023-03-06T02:29:55.810Z,62.30
2023-03-06T02:32:22.486Z,62.22
2023-03-06T02:34:54.553Z,62.86
2023-03-06T02:37:21.327Z,63.74
2023-03-06T02:39:50.052Z,63.65
2023-03-06T02:42:24.869Z,63.56
2023-03-06T02:44:52.342Z,63.36
2023-03-06T02:47:18.997Z,63.05
2023-03-06T02:49:45.657Z,63.42
2023-03-06T02:52:12.297Z,62.66
2023-03-06T02:54:38.946Z,62.67
2023-03-06T02:57:05.569Z,63.05
2023-03-06T02:59:32.204Z,62.49
2023-03-06T03:01:58.842Z,63.80
2023-03-06T03:04:25.547Z,64.39
2023-03-06T03:06:52.220Z,63.93
2023-03-06T03:09:18.879Z,63.97
2023-03-06T03:11:45.562Z,63.52
2023-03-06T03:14:12.191Z,63.42
2023-03-06T03:16:39.269Z,63.10
2023-03-06T03:19:06.004Z,63.29
2023-03-06T03:21:32.679Z,63.69
2023-03-06T03:23:59.330Z,62.76
2023-03-06T03:26:26.010Z,62.57
2023-03-06T03:28:52.639Z,62.81
2023-03-06T03:31:19.362Z,62.72
2023-03-06T03:33:46.058Z,64.27
2023-03-06T03:36:12.712Z,63.99
2023-03-06T03:38:39.344Z,64.07
2023-03-06T03:41:05.994Z,63.52
2023-03-06T03:43:32.630Z,62.87
2023-03-06T03:45:59.282Z,62.94
2023-03-06T03:48:25.932Z,63.14
2023-03-06T03:50:52.593Z,62.99
2023-03-06T03:53:19.239Z,63.95
2023-03-06T03:55:48.608Z,62.48
2023-03-06T03:58:15.320Z,63.13
2023-03-06T04:00:41.973Z,62.79
2023-03-06T04:03:08.598Z,62.87
2023-03-06T04:05:35.241Z,63.84
2023-03-06T04:08:01.874Z,63.96
2023-03-06T04:10:28.525Z,63.62
2023-03-06T04:12:55.165Z,63.48
2023-03-06T04:15:21.835Z,63.77
2023-03-06T04:17:48.492Z,63.43
2023-03-06T04:20:15.131Z,63.65
2023-03-06T04:22:41.761Z,64.28
2023-03-06T04:25:08.799Z,65.05
2023-03-06T04:27:35.444Z,64.50
2023-03-06T04:30:02.110Z,64.57
2023-03-06T04:32:28.761Z,64.16
2023-03-06T04:34:55.500Z,63.93
2023-03-06T04:37:23.716Z,63.74
2023-03-06T04:39:50.399Z,64.10
2023-03-06T04:42:17.046Z,64.16
2023-03-06T04:44:43.850Z,62.95
2023-03-06T04:47:10.546Z,63.41
2023-03-06T04:49:37.190Z,63.24
2023-03-06T04:52:03.910Z,62.69
2023-03-06T04:54:30.573Z,63.03
2023-03-06T04:56:57.255Z,62.89
2023-03-06T04:59:23.971Z,62.79
2023-03-06T05:01:50.720Z,63.46
2023-03-06T05:04:17.367Z,63.15
2023-03-06T05:06:44.060Z,62.93
2023-03-06T05:09:10.707Z,62.92
2023-03-06T05:11:37.355Z,63.24
2023-03-06T05:14:03.997Z,63.10
2023-03-06T05:16:30.759Z,63.56
2023-03-06T05:18:57.476Z,63.77
2023-03-06T05:21:24.115Z,63.76
2023-03-06T05:23:50.762Z,63.74
2023-03-06T05:26:17.391Z,64.17
2023-03-06T05:28:44.061Z,63.76
2023-03-06T05:31:10.704Z,63.88
2023-03-06T05:33:37.360Z,64.22
2023-03-06T05:36:04.287Z,64.92
2023-03-06T05:38:31.649Z,64.31
2023-03-06T05:40:58.536Z,64.73
2023-03-06T05:43:25.241Z,64.17
2023-03-06T05:45:51.953Z,64.02
2023-03-06T05:48:18.662Z,64.25
2023-03-06T05:50:45.348Z,64.47
2023-03-06T05:53:11.980Z,64.02
2023-03-06T05:55:41.640Z,64.18
2023-03-06T05:58:08.316Z,64.43
2023-03-06T06:00:35.530Z,63.38
2023-03-06T06:03:02.543Z,63.16
2023-03-06T06:05:29.207Z,63.40
2023-03-06T06:07:55.903Z,64.63
2023-03-06T06:10:22.555Z,65.00
2023-03-06T06:12:49.217Z,64.36
2023-03-06T06:15:16.064Z,64.80
2023-03-06T06:17:42.839Z,63.52
2023-03-06T06:20:09.865Z,64.05
2023-03-06T06:22:37.232Z,64.15
2023-03-06T06:25:04.950Z,63.62
2023-03-06T06:27:31.858Z,63.95
2023-03-06T06:29:58.539Z,64.46
2023-03-06T06:32:25.269Z,63.32
2023-03-06T06:34:52.034Z,63.38
2023-03-06T06:37:18.691Z,63.71
2023-03-06T06:39:45.368Z,63.48
2023-03-06T06:42:29.322Z,64.51
2023-03-06T06:44:58.263Z,64.72
2023-03-06T06:47:25.907Z,64.89
2023-03-06T06:49:53.469Z,64.16
2023-03-06T06:52:20.282Z,64.08
2023-03-06T06:54:46.937Z,63.52
2023-03-06T06:57:13.618Z,64.12
2023-03-06T06:59:40.276Z,63.68
2023-03-06T07:02:06.944Z,63.71
2023-03-06T07:04:33.698Z,63.59
2023-03-06T07:07:00.377Z,63.53
2023-03-06T07:09:27.060Z,63.85
2023-03-06T07:11:53.714Z,63.28
2023-03-06T07:14:20.384Z,64.29
2023-03-06T07:16:47.136Z,64.15
2023-03-06T07:19:13.790Z,63.17
2023-03-06T07:21:40.504Z,62.67
2023-03-06T07:24:07.285Z,63.01
2023-03-06T07:26:34.898Z,62.25
2023-03-06T07:29:02.180Z,62.41
2023-03-06T07:31:29.045Z,62.49
2023-03-06T07:33:55.744Z,63.07
2023-03-06T07:36:23.039Z,62.87
2023-03-06T07:38:49.914Z,62.98
2023-03-06T07:41:16.708Z,62.38
2023-03-06T07:43:44.038Z,63.08
2023-03-06T07:46:10.903Z,63.14
2023-03-06T07:48:37.710Z,63.45
2023-03-06T07:51:08.984Z,62.59
2023-03-06T07:53:35.686Z,62.91
2023-03-06T07:56:04.119Z,62.96
2023-03-06T07:58:30.753Z,63.45
2023-03-06T08:00:57.512Z,63.47
2023-03-06T08:03:24.192Z,63.05
2023-03-06T08:05:50.909Z,62.98
2023-03-06T08:08:17.567Z,62.92
2023-03-06T08:10:47.826Z,63.03
2023-03-06T08:13:14.500Z,62.45
2023-03-06T08:15:41.204Z,62.25
2023-03-06T08:18:07.906Z,61.80
2023-03-06T08:20:34.576Z,61.16
2023-03-06T08:23:01.269Z,60.42
2023-03-06T08:25:27.908Z,60.02
2023-03-06T08:27:54.581Z,59.07
2023-03-06T08:30:21.286Z,58.54
2023-03-06T08:32:47.936Z,58.80
2023-03-06T08:35:14.817Z,58.21
2023-03-06T08:37:41.512Z,57.95
2023-03-06T08:40:08.849Z,56.77
2023-03-06T08:42:35.538Z,56.96
2023-03-06T08:45:02.230Z,56.38
2023-03-06T08:47:30.010Z,55.68
2023-03-06T08:49:57.774Z,54.76
2023-03-06T08:52:25.502Z,53.74
2023-03-06T08:54:52.234Z,52.46
2023-03-06T08:57:18.961Z,50.30
2023-03-06T08:59:45.613Z,47.00
2023-03-06T09:02:12.657Z,44.91
2023-03-06T09:04:39.401Z,42.34
2023-03-06T09:07:06.052Z,41.23
2023-03-06T09:09:32.896Z,39.93
2023-03-06T09:11:59.560Z,37.94
2023-03-06T09:14:26.269Z,38.06
2023-03-06T09:16:53.090Z,37.20
2023-03-06T09:19:19.821Z,36.41
2023-03-06T09:21:46.519Z,36.29
2023-03-06T09:24:19.534Z,37.08
2023-03-06T09:26:47.675Z,35.30
2023-03-06T09:29:15.510Z,35.72
2023-03-06T09:31:42.172Z,35.82
2023-03-06T09:34:08.848Z,34.50
2023-03-06T09:36:49.253Z,36.29
2023-03-06T09:39:20.331Z,37.57
2023-03-06T09:41:47.020Z,37.68
2023-03-06T09:44:15.839Z,39.06
2023-03-06T09:46:54.534Z,40.34
2023-03-06T09:49:33.369Z,40.85
2023-03-06T09:52:05.031Z,41.19
2023-03-06T09:54:43.800Z,43.31
2023-03-06T09:57:17.502Z,43.47
2023-03-06T09:59:45.318Z,43.89
2023-03-06T10:02:14.949Z,44.18
2023-03-06T10:04:43.151Z,45.51
2023-03-06T10:07:20.451Z,44.46
2023-03-06T10:10:07.416Z,45.16
2023-03-06T10:12:43.451Z,44.70
2023-03-06T10:15:18.456Z,44.57
2023-03-06T10:17:45.178Z,44.99
2023-03-06T10:20:23.355Z,44.76
2023-03-06T10:23:12.104Z,44.27
2023-03-06T10:25:46.497Z,44.55
2023-03-06T10:28:18.290Z,45.41
2023-03-06T10:31:01.571Z,46.00
2023-03-06T10:33:43.469Z,45.76
2023-03-06T10:36:15.635Z,45.21
2023-03-06T10:38:42.344Z,46.42
2023-03-06T10:41:11.832Z,46.13
2023-03-06T10:43:43.126Z,46.33
2023-03-06T10:46:11.696Z,45.96
2023-03-06T10:48:40.980Z,46.29
2023-03-06T10:51:18.608Z,45.49
2023-03-06T10:53:49.156Z,45.28
2023-03-06T10:56:26.427Z,46.35
2023-03-06T10:59:18.266Z,45.91
2023-03-06T11:01:48.921Z,45.53
2023-03-06T11:04:31.427Z,46.39
2023-03-06T11:07:14.692Z,46.41
2023-03-06T11:09:56.520Z,46.86
2023-03-06T11:12:30.472Z,45.70
2023-03-06T11:15:23.907Z,46.21
2023-03-06T11:18:04.875Z,46.39
2023-03-06T11:20:51.068Z,46.01
2023-03-06T11:23:29.470Z,46.76
2023-03-06T11:26:17.333Z,46.19
2023-03-06T11:28:48.731Z,46.85
2023-03-06T11:31:26.149Z,45.89
2023-03-06T11:33:56.769Z,46.69
2023-03-06T11:36:26.412Z,46.36
2023-03-06T11:38:53.636Z,46.12
2023-03-06T11:41:42.598Z,46.06
2023-03-06T11:44:20.119Z,46.01
2023-03-06T11:46:49.599Z,46.23
2023-03-06T11:49:24.469Z,45.60
2023-03-06T11:51:54.210Z,43.64
2023-03-06T11:54:21.791Z,43.98
2023-03-06T11:57:27.559Z,45.05
2023-03-06T12:00:18.260Z,44.16
2023-03-06T12:03:07.226Z,44.24
2023-03-06T12:05:46.702Z,41.56
2023-03-06T12:08:17.102Z,43.54
2023-03-06T12:10:57.815Z,43.76
2023-03-06T12:13:31.484Z,42.99
2023-03-06T12:16:12.378Z,45.09
2023-03-06T12:18:51.096Z,45.03
2023-03-06T12:21:43.083Z,46.05
2023-03-06T12:24:25.154Z,47.10
2023-03-06T12:27:20.955Z,46.89
2023-03-06T12:30:10.349Z,43.50
2023-03-06T12:32:46.471Z,42.20
2023-03-06T12:35:22.503Z,42.16
2023-03-06T12:37:55.220Z,42.82
2023-03-06T12:40:24.334Z,41.66
2023-03-06T12:43:22.996Z,43.05
2023-03-06T12:45:50.042Z,42.73
2023-03-06T12:48:19.203Z,43.75
2023-03-06T12:50:45.921Z,42.55
2023-03-06T12:53:30.070Z,44.61
2023-03-06T12:55:57.645Z,42.88
2023-03-06T12:58:30.243Z,42.81
2023-03-06T13:01:04.142Z,43.20
2023-03-06T13:04:01.125Z,44.72
2023-03-06T13:06:52.592Z,44.69
2023-03-06T13:09:22.691Z,44.29
2023-03-06T13:12:08.039Z,45.50
2023-03-06T13:14:54.606Z,44.52
2023-03-06T13:17:24.667Z,44.97
2023-03-06T13:20:35.288Z,43.86
2023-03-06T13:23:34.197Z,42.43
2023-03-06T13:26:03.961Z,43.85
2023-03-06T13:28:46.367Z,43.44
2023-03-06T13:31:28.193Z,43.08
2023-03-06T13:34:33.839Z,42.60
2023-03-06T13:37:19.117Z,42.00
2023-03-06T13:39:57.859Z,42.43
2023-03-06T13:42:37.572Z,42.82
2023-03-06T13:45:23.506Z,42.97
2023-03-06T13:50:42.653Z,43.18
2023-03-06T13:53:16.694Z,41.49
2023-03-06T13:56:05.086Z,41.45
2023-03-06T13:58:44.843Z,41.34
2023-03-06T14:01:17.149Z,40.78
2023-03-06T14:04:05.660Z,40.87
2023-03-06T14:06:35.316Z,40.55
2023-03-06T14:09:05.531Z,41.16
2023-03-06T14:11:32.338Z,40.49
2023-03-06T14:13:59.042Z,40.12
2023-03-06T14:16:29.194Z,39.89
2023-03-06T14:18:59.303Z,39.18
2023-03-06T14:21:39.146Z,39.60
2023-03-06T14:24:05.908Z,39.16
2023-03-06T14:26:34.357Z,40.49
2023-03-06T14:29:01.962Z,38.95
2023-03-06T14:31:31.006Z,38.42
2023-03-06T14:34:05.063Z,38.91
2023-03-06T14:36:32.383Z,39.21
2023-03-06T14:39:03.419Z,39.29
2023-03-06T14:41:31.535Z,39.74
2023-03-06T14:44:14.347Z,39.16
2023-03-06T14:46:41.054Z,40.47
2023-03-06T14:49:07.994Z,39.08
2023-03-06T14:51:41.763Z,38.92
2023-03-06T14:54:13.069Z,39.65
2023-03-06T14:56:40.561Z,40.18
2023-03-06T14:59:08.714Z,39.27
2023-03-06T15:01:37.452Z,39.61
2023-03-06T15:04:14.855Z,39.17
2023-03-06T15:06:42.146Z,39.01
2023-03-06T15:09:22.027Z,39.13
2023-03-06T15:12:00.445Z,38.70
2023-03-06T15:14:37.009Z,39.48
2023-03-06T15:17:21.706Z,39.52
2023-03-06T15:19:52.958Z,39.69
2023-03-06T15:22:27.406Z,40.25
2023-03-06T15:24:54.382Z,38.85
2023-03-06T15:27:25.999Z,38.60
2023-03-06T15:29:52.659Z,38.88
2023-03-06T15:32:25.297Z,38.20
2023-03-06T15:35:22.808Z,39.42
2023-03-06T15:37:52.289Z,39.62
2023-03-06T15:40:19.929Z,39.29
2023-03-06T15:42:46.668Z,40.11
2023-03-06T15:45:15.503Z,39.88
2023-03-06T15:47:43.093Z,40.87
2023-03-06T15:50:26.303Z,39.51
2023-03-06T15:52:53.160Z,40.02
2023-03-06T15:55:24.509Z,39.83
2023-03-06T15:57:56.755Z,40.03
2023-03-06T16:00:28.477Z,39.83
2023-03-06T16:02:56.106Z,39.78
2023-03-06T16:05:22.779Z,39.30
2023-03-06T16:07:49.521Z,39.23
2023-03-06T16:10:17.787Z,40.16
2023-03-06T16:12:48.386Z,40.79
2023-03-06T16:15:17.853Z,40.46
2023-03-06T16:17:44.581Z,40.29
2023-03-06T16:20:20.510Z,40.18
2023-03-06T16:22:47.722Z,40.17
2023-03-06T16:25:15.569Z,40.13
2023-03-06T16:27:43.548Z,40.40
2023-03-06T16:30:17.572Z,41.19
2023-03-06T16:32:44.281Z,42.08
2023-03-06T16:35:11.724Z,41.94
2023-03-06T16:37:39.409Z,43.09
2023-03-06T16:40:13.031Z,42.99
2023-03-06T16:42:39.724Z,42.59
2023-03-06T16:45:06.918Z,42.70
2023-03-06T16:47:33.628Z,42.76
2023-03-06T16:50:00.899Z,42.47
2023-03-06T16:52:27.875Z,42.50
2023-03-06T16:54:54.560Z,43.77
2023-03-06T16:57:21.243Z,43.86
2023-03-06T16:59:47.927Z,44.16
2023-03-06T17:02:14.684Z,44.33
2023-03-06T17:04:42.307Z,44.51
2023-03-06T17:07:09.890Z,43.13
2023-03-06T17:09:37.336Z,44.22
2023-03-06T17:12:04.179Z,43.83
2023-03-06T17:14:33.694Z,44.60
2023-03-06T17:17:01.313Z,43.60
2023-03-06T17:19:29.867Z,43.24
2023-03-06T17:21:58.485Z,43.63
2023-03-06T17:24:26.083Z,46.01
2023-03-06T17:26:53.670Z,45.98
2023-03-06T17:29:20.748Z,44.37
2023-03-06T17:31:47.450Z,44.44
2023-03-06T17:34:14.474Z,45.29
2023-03-06T17:36:42.062Z,45.14
2023-03-06T17:39:09.687Z,46.14
2023-03-06T17:41:36.676Z,47.08
2023-03-06T17:44:03.429Z,46.03
2023-03-06T17:46:30.582Z,46.42
2023-03-06T17:48:57.787Z,46.47
2023-03-06T17:51:26.657Z,46.52
2023-03-06T17:53:55.239Z,46.13
2023-03-06T17:56:23.865Z,46.09
2023-03-06T17:58:54.469Z,46.30
2023-03-06T18:01:23.148Z,46.22
2023-03-06T18:03:52.356Z,46.53
2023-03-06T18:06:19.609Z,46.59
2023-03-06T18:08:46.519Z,46.83
2023-03-06T18:11:13.453Z,48.06
2023-03-06T18:13:41.460Z,48.35
2023-03-06T18:16:09.755Z,46.94
2023-03-06T18:18:38.328Z,47.08
2023-03-06T18:21:10.846Z,47.11
2023-03-06T18:23:39.567Z,48.92
2023-03-06T18:31:41.744Z,49.14
2023-03-06T18:34:16.396Z,49.29
2023-03-06T18:36:46.118Z,51.05
2023-03-06T18:39:13.719Z,51.62
2023-03-06T18:41:41.318Z,51.41
2023-03-06T18:44:11.281Z,50.10
2023-03-06T18:46:40.384Z,49.68
2023-03-06T18:49:07.390Z,50.46
2023-03-06T18:51:35.108Z,49.53
2023-03-06T18:54:05.088Z,48.61
2023-03-06T18:56:33.250Z,48.55
2023-03-06T18:59:06.916Z,47.33
2023-03-06T19:01:35.488Z,46.24
2023-03-06T19:04:03.206Z,46.70
2023-03-06T19:06:30.694Z,45.56
2023-03-06T19:08:59.945Z,45.66
2023-03-06T19:11:26.651Z,45.20
2023-03-06T19:13:55.502Z,45.57
2023-03-06T19:16:24.169Z,45.05
2023-03-06T19:18:51.722Z,44.46
2023-03-06T19:21:20.423Z,46.08
2023-03-06T19:23:49.052Z,46.26
2023-03-06T19:26:17.641Z,46.06
2023-03-06T19:28:45.265Z,45.85
2023-03-06T19:31:19.656Z,45.59
2023-03-06T19:33:46.938Z,45.44
2023-03-06T19:36:14.122Z,46.18
2023-03-06T19:38:41.211Z,45.99
2023-03-06T19:41:13.301Z,45.46
2023-03-06T19:43:40.933Z,45.55
2023-03-06T19:46:12.588Z,46.58
2023-03-06T19:48:40.184Z,46.45
2023-03-06T19:51:07.025Z,46.23
2023-03-06T19:53:33.888Z,46.50
2023-03-06T19:56:11.802Z,46.83
2023-03-06T19:58:38.481Z,47.03
2023-03-06T20:01:06.572Z,46.99
2023-03-06T20:03:33.257Z,46.85
2023-03-06T20:06:00.231Z,46.81
2023-03-06T20:08:26.899Z,47.60
2023-03-06T20:10:53.563Z,46.58
2023-03-06T20:13:20.243Z,46.64
2023-03-06T20:15:46.959Z,46.42
2023-03-06T20:18:13.733Z,46.36
2023-03-06T20:20:40.386Z,46.10
2023-03-06T20:23:07.047Z,46.69
2023-03-06T20:25:35.397Z,45.62
2023-03-06T20:28:02.195Z,46.79
2023-03-06T20:30:37.521Z,46.48
2023-03-06T20:33:04.908Z,47.05
2023-03-06T20:35:31.619Z,46.71
2023-03-06T20:37:58.408Z,46.35
2023-03-06T20:40:25.131Z,46.64
2023-03-06T20:42:51.858Z,46.54
2023-03-06T20:45:18.557Z,46.69
2023-03-06T20:47:45.237Z,45.86
2023-03-06T20:50:11.907Z,46.28
2023-03-06T20:52:38.619Z,46.27
2023-03-06T20:55:05.798Z,46.95
2023-03-06T20:57:32.445Z,46.71
2023-03-06T20:59:59.146Z,46.50
2023-03-06T21:02:25.860Z,47.15
2023-03-06T21:04:52.559Z,47.04
2023-03-06T21:07:19.384Z,46.72
2023-03-06T21:09:46.078Z,46.61
2023-03-06T21:12:12.752Z,47.65
2023-03-06T21:14:39.436Z,47.33
2023-03-06T21:17:06.120Z,47.78
2023-03-06T21:19:32.791Z,47.52
2023-03-06T21:21:59.467Z,47.63
2023-03-06T21:24:26.183Z,47.27
2023-03-06T21:26:52.864Z,47.51
2023-03-06T21:29:19.510Z,47.58
2023-03-06T21:31:46.219Z,48.33
2023-03-06T21:34:13.083Z,48.62
2023-03-06T21:36:39.758Z,48.13
2023-03-06T21:39:06.536Z,48.00
2023-03-06T21:41:33.357Z,47.87
2023-03-06T21:44:01.446Z,47.62
2023-03-06T21:46:28.181Z,48.15
2023-03-06T21:48:54.858Z,47.95
2023-03-06T21:51:21.789Z,48.65
2023-03-06T21:53:48.459Z,48.36
2023-03-06T21:56:16.614Z,47.83
2023-03-06T21:58:43.421Z,48.01
2023-03-06T22:01:11.347Z,48.01
2023-03-06T22:03:38.104Z,47.97
2023-03-06T22:06:11.576Z,47.83
2023-03-06T22:08:38.362Z,48.89
2023-03-06T22:11:07.004Z,48.71
2023-03-06T22:13:33.704Z,49.17
2023-03-06T22:16:00.338Z,49.02
2023-03-06T22:18:26.993Z,48.96
2023-03-06T22:20:53.683Z,48.48
2023-03-06T22:23:20.355Z,49.29
2023-03-06T22:25:47.028Z,49.08
2023-03-06T22:28:13.693Z,49.80
2023-03-06T22:30:40.341Z,49.61
2023-03-06T22:33:06.981Z,49.81
2023-03-06T22:35:33.656Z,50.08
2023-03-06T22:38:00.318Z,49.93
2023-03-06T22:40:26.997Z,49.87
2023-03-06T22:42:53.653Z,50.85
2023-03-06T22:45:20.301Z,50.06
2023-03-06T22:47:46.980Z,50.01
2023-03-06T22:50:13.725Z,49.55
2023-03-06T22:52:40.386Z,49.51
2023-03-06T22:55:07.343Z,50.23
2023-03-06T22:57:34.037Z,50.57
2023-03-06T23:00:00.705Z,50.46
2023-03-06T23:02:32.721Z,50.77
2023-03-06T23:04:59.361Z,50.39
2023-03-06T23:07:26.022Z,50.04
2023-03-06T23:09:52.658Z,50.82
2023-03-06T23:12:19.343Z,50.24
2023-03-06T23:14:46.198Z,50.47
2023-03-06T23:17:12.913Z,50.57
2023-03-06T23:19:39.569Z,51.06
2023-03-06T23:22:06.244Z,50.79
2023-03-06T23:24:34.786Z,50.85
2023-03-06T23:27:03.156Z,50.78
2023-03-06T23:29:29.847Z,50.88
2023-03-06T23:31:56.499Z,51.65
2023-03-06T23:34:23.152Z,51.60
2023-03-06T23:36:49.814Z,50.94
2023-03-06T23:39:16.520Z,51.31
2023-03-06T23:41:43.188Z,51.38
2023-03-06T23:44:09.833Z,51.17
2023-03-06T23:46:36.614Z,50.72
2023-03-06T23:49:03.275Z,51.61
2023-03-06T23:51:29.906Z,52.18
2023-03-06T23:53:57.856Z,52.44
2023-03-06T23:56:25.229Z,51.75
2023-03-06T23:58:51.960Z,52.70
